Time;durP1;ratioP1;P1;durP2;ratioP2;P2;SDS_P1;SDS_P2;PMS_P1;PMS_P2;Temp;Humidity;BMP_temperature;BMP_pressure;BME280_temperature;BME280_humidity;BME280_pressure;Samples;Min_cycle;Max_cycle;Signal;HPM_P1;HPM_P2
2022/09/18 00:01:11;;;;;;;1.40;0.43;;;12.20;99.90;;;;;;6181078;28;20046;-83
2022/09/18 00:04:14;;;;;;;2.78;0.50;;;12.20;99.90;;;;;;6181822;28;20050;-83
2022/09/18 00:07:17;;;;;;;1.13;0.40;;;12.30;99.90;;;;;;6184035;28;20047;-83
2022/09/18 00:10:19;;;;;;;4.40;0.70;;;12.30;99.90;;;;;;6184401;28;20059;-83
2022/09/18 00:13:20;;;;;;;2.03;0.30;;;12.20;99.90;;;;;;6182089;28;20058;-82
2022/09/18 00:16:23;;;;;;;7.30;0.63;;;12.30;99.90;;;;;;6182652;28;20051;-82
2022/09/18 00:19:25;;;;;;;2.10;0.40;;;12.20;99.90;;;;;;6181659;28;20436;-83
2022/09/18 00:22:28;;;;;;;4.43;0.57;;;12.30;99.90;;;;;;6182547;28;20054;-83
2022/09/18 00:25:31;;;;;;;3.42;0.60;;;12.30;99.90;;;;;;6181299;28;20055;-83
2022/09/18 00:28:32;;;;;;;3.55;0.60;;;12.30;99.90;;;;;;6197151;28;20038;-82
2022/09/18 00:31:35;;;;;;;1.70;0.40;;;12.20;99.90;;;;;;6205264;28;20050;-82
2022/09/18 00:34:38;;;;;;;2.35;0.40;;;12.20;99.90;;;;;;6205025;28;20054;-82
2022/09/18 00:37:41;;;;;;;1.45;0.75;;;12.10;99.90;;;;;;6205379;28;20503;-82
2022/09/18 00:40:43;;;;;;;3.38;0.60;;;12.10;99.90;;;;;;6205590;28;20046;-82
2022/09/18 00:43:45;;;;;;;3.13;0.93;;;12.10;99.90;;;;;;6210388;28;20050;-81
2022/09/18 00:46:47;;;;;;;3.50;0.80;;;12.10;99.90;;;;;;6205435;28;20052;-82
2022/09/18 00:49:53;;;;;;;6.80;0.73;;;12.10;99.90;;;;;;6204404;28;20047;-82
2022/09/18 00:52:58;;;;;;;2.70;0.70;;;12.20;99.90;;;;;;6197392;28;20595;-82
2022/09/18 00:56:02;;;;;;;5.78;1.55;;;12.20;99.90;;;;;;6203206;28;20122;-82
2022/09/18 00:59:05;;;;;;;5.57;0.57;;;12.20;99.90;;;;;;6202999;28;20046;-82
2022/09/18 01:02:06;;;;;;;4.88;1.40;;;12.20;99.90;;;;;;6203796;28;20061;-82
2022/09/18 01:05:10;;;;;;;5.68;0.70;;;12.20;99.90;;;;;;6203872;28;20051;-82
2022/09/18 01:08:27;;;;;;;1.70;0.60;;;12.30;99.90;;;;;;6202938;28;20127;-82
2022/09/18 01:11:40;;;;;;;7.85;0.60;;;12.30;99.90;;;;;;6202929;28;20054;-81
2022/09/18 01:14:51;;;;;;;2.67;0.45;;;12.30;99.90;;;;;;6203849;28;20054;-82
2022/09/18 01:18:02;;;;;;;2.17;0.50;;;12.30;99.90;;;;;;6204408;28;20054;-82
2022/09/18 01:21:13;;;;;;;8.23;0.85;;;12.30;99.90;;;;;;6203389;28;20061;-82
2022/09/18 01:24:34;;;;;;;2.60;0.85;;;12.40;99.90;;;;;;6203236;28;20050;-82
2022/09/18 01:27:46;;;;;;;4.32;0.40;;;12.30;99.90;;;;;;6203512;28;20093;-82
2022/09/18 01:30:50;;;;;;;5.85;0.80;;;12.30;99.90;;;;;;6179630;28;20050;-83
2022/09/18 01:33:56;;;;;;;2.40;0.70;;;12.20;99.90;;;;;;6180870;28;20133;-83
2022/09/18 01:37:04;;;;;;;3.53;0.50;;;12.30;99.90;;;;;;6216160;28;20049;-82
2022/09/18 01:40:13;;;;;;;2.88;0.65;;;12.30;99.90;;;;;;6231906;28;20049;-82
2022/09/18 01:43:18;;;;;;;4.63;0.68;;;12.30;99.90;;;;;;6230618;28;20061;-82
2022/09/18 01:46:20;;;;;;;4.85;0.70;;;12.30;99.90;;;;;;6230278;28;20050;-82
2022/09/18 01:49:25;;;;;;;3.65;0.40;;;12.30;99.90;;;;;;6223330;28;20512;-82
2022/09/18 01:52:32;;;;;;;4.53;0.68;;;12.30;99.90;;;;;;6203593;28;20050;-82
2022/09/18 01:55:36;;;;;;;9.95;1.20;;;12.30;99.90;;;;;;6204146;28;20051;-82
2022/09/18 01:58:39;;;;;;;2.55;0.63;;;12.40;99.90;;;;;;6205705;28;20050;-82
2022/09/18 02:01:44;;;;;;;5.13;0.68;;;12.40;99.90;;;;;;6228670;28;20061;-82
2022/09/18 02:04:50;;;;;;;6.63;0.60;;;12.40;99.90;;;;;;6228540;28;20052;-82
2022/09/18 02:07:59;;;;;;;1.50;0.60;;;12.30;99.90;;;;;;6227653;28;20172;-82
2022/09/18 02:11:05;;;;;;;4.28;0.82;;;12.30;99.90;;;;;;6228030;28;20503;-82
2022/09/18 02:14:14;;;;;;;4.05;1.10;;;12.30;99.90;;;;;;6228436;28;20050;-82
2022/09/18 02:17:21;;;;;;;9.52;1.33;;;12.30;99.90;;;;;;6227041;28;20046;-82
2022/09/18 02:20:26;;;;;;;5.38;1.17;;;12.30;99.90;;;;;;6227968;28;20046;-82
2022/09/18 02:23:29;;;;;;;1.45;0.63;;;12.30;99.90;;;;;;6227786;28;20052;-82
2022/09/18 02:26:33;;;;;;;11.93;0.80;;;12.30;99.90;;;;;;6227522;28;20049;-82
2022/09/18 02:29:37;;;;;;;5.30;0.75;;;12.30;99.90;;;;;;6200308;28;20049;-82
2022/09/18 02:32:39;;;;;;;2.33;0.52;;;12.30;99.90;;;;;;6179224;28;20091;-82
2022/09/18 02:35:50;;;;;;;5.85;0.60;;;12.40;99.90;;;;;;6179098;28;20046;-82
2022/09/18 02:39:01;;;;;;;4.70;0.93;;;12.40;99.90;;;;;;6178732;28;20054;-82
2022/09/18 02:42:15;;;;;;;4.50;0.77;;;12.40;99.90;;;;;;6179207;28;20506;-82
2022/09/18 02:45:27;;;;;;;4.45;0.68;;;12.40;99.90;;;;;;6178834;28;20505;-82
2022/09/18 02:48:41;;;;;;;3.30;0.70;;;12.30;99.90;;;;;;6178416;28;20047;-82
2022/09/18 02:51:47;;;;;;;3.20;1.25;;;12.30;99.90;;;;;;6179765;28;20054;-82
2022/09/18 02:54:54;;;;;;;1.80;0.80;;;12.30;99.90;;;;;;6195307;28;20077;-82
2022/09/18 02:58:00;;;;;;;3.97;0.93;;;12.30;99.90;;;;;;6203043;28;20484;-82
2022/09/18 03:01:05;;;;;;;1.48;0.43;;;12.30;99.90;;;;;;6203012;28;20393;-82
2022/09/18 03:04:13;;;;;;;3.28;0.73;;;12.30;99.90;;;;;;6190796;28;20051;-82
2022/09/18 03:07:15;;;;;;;7.70;1.02;;;12.40;99.90;;;;;;6177923;28;20047;-85
2022/09/18 03:10:17;;;;;;;1.75;0.30;;;12.40;99.90;;;;;;6176955;28;20137;-85
2022/09/18 03:13:18;;;;;;;3.47;0.85;;;12.40;99.90;;;;;;6193077;28;20053;-84
2022/09/18 03:16:21;;;;;;;3.53;0.65;;;12.40;99.90;;;;;;6200542;28;20050;-82
2022/09/18 03:19:23;;;;;;;4.15;0.47;;;12.40;99.90;;;;;;6202226;28;20069;-82
2022/09/18 03:22:25;;;;;;;3.92;0.50;;;12.40;99.90;;;;;;6203567;28;20055;-82
2022/09/18 03:25:26;;;;;;;3.90;0.80;;;12.40;99.90;;;;;;6204410;28;20047;-82
2022/09/18 03:28:30;;;;;;;7.40;1.17;;;12.40;99.90;;;;;;6203472;28;20046;-82
2022/09/18 03:31:33;;;;;;;6.03;0.65;;;12.40;99.90;;;;;;6197926;28;20053;-82
2022/09/18 03:34:35;;;;;;;0.77;0.28;;;12.40;99.90;;;;;;6203775;28;20081;-82
2022/09/18 03:37:37;;;;;;;5.07;0.70;;;12.40;99.90;;;;;;6204361;28;20500;-82
2022/09/18 03:40:38;;;;;;;6.55;1.27;;;12.40;99.90;;;;;;6203916;28;20046;-82
2022/09/18 03:43:40;;;;;;;8.05;1.05;;;12.40;99.90;;;;;;6204831;28;20504;-82
2022/09/18 03:46:43;;;;;;;5.10;1.23;;;12.50;99.90;;;;;;6204355;28;20050;-82
2022/09/18 03:49:45;;;;;;;4.07;0.70;;;12.40;99.90;;;;;;6205644;28;20213;-82
2022/09/18 03:52:47;;;;;;;6.05;1.95;;;12.40;99.90;;;;;;6206139;28;20062;-82
2022/09/18 03:55:49;;;;;;;6.20;1.00;;;12.40;99.90;;;;;;6206107;28;20047;-82
2022/09/18 03:58:52;;;;;;;2.95;0.77;;;12.40;99.90;;;;;;6205728;28;20424;-82
2022/09/18 04:01:56;;;;;;;5.90;0.73;;;12.50;99.90;;;;;;6213203;28;20055;-82
2022/09/18 04:04:57;;;;;;;5.05;0.70;;;12.40;99.90;;;;;;6206564;28;20057;-82
2022/09/18 04:07:59;;;;;;;3.63;1.10;;;12.50;99.90;;;;;;6206183;28;20567;-82
2022/09/18 04:11:03;;;;;;;7.28;0.95;;;12.40;99.90;;;;;;6206200;28;20047;-82
2022/09/18 04:14:05;;;;;;;4.80;1.13;;;12.40;99.90;;;;;;6206744;28;20140;-82
2022/09/18 04:17:08;;;;;;;3.80;0.82;;;12.40;99.90;;;;;;6206095;28;20053;-82
2022/09/18 04:20:10;;;;;;;5.20;0.95;;;12.40;99.90;;;;;;6205429;28;20046;-83
2022/09/18 04:23:13;;;;;;;4.38;0.88;;;12.50;99.90;;;;;;6201575;28;20054;-83
2022/09/18 04:26:15;;;;;;;4.15;1.02;;;12.50;99.90;;;;;;6202447;28;20054;-83
2022/09/18 04:29:16;;;;;;;6.32;2.45;;;12.50;99.90;;;;;;6203246;28;20047;-83
2022/09/18 04:32:19;;;;;;;4.82;0.95;;;12.50;99.90;;;;;;6196190;28;20097;-82
2022/09/18 04:35:21;;;;;;;4.38;1.05;;;12.50;99.90;;;;;;6204119;28;20050;-82
2022/09/18 04:38:26;;;;;;;7.35;1.10;;;12.50;99.90;;;;;;6207932;28;20046;-82
2022/09/18 04:41:28;;;;;;;9.40;0.82;;;12.50;99.90;;;;;;6206769;28;20054;-83
2022/09/18 04:44:29;;;;;;;6.68;1.08;;;12.50;99.90;;;;;;6204385;28;20133;-83
2022/09/18 04:47:32;;;;;;;6.28;1.08;;;12.60;99.90;;;;;;6208434;28;20050;-83
2022/09/18 04:50:34;;;;;;;4.40;1.40;;;12.50;99.90;;;;;;6207698;28;20046;-83
2022/09/18 04:53:36;;;;;;;4.93;0.70;;;12.50;99.90;;;;;;6208621;28;20050;-84
2022/09/18 04:56:39;;;;;;;4.03;0.60;;;12.50;99.90;;;;;;6204364;28;20081;-83
2022/09/18 04:59:41;;;;;;;3.75;1.00;;;12.50;99.90;;;;;;6206135;28;20058;-82
2022/09/18 05:02:44;;;;;;;1.83;0.60;;;12.50;99.90;;;;;;6206590;28;20578;-83
2022/09/18 05:05:47;;;;;;;9.85;1.15;;;12.60;99.90;;;;;;6207576;28;20424;-83
2022/09/18 05:08:48;;;;;;;3.85;0.82;;;12.50;99.90;;;;;;6206340;28;20050;-83
2022/09/18 05:11:53;;;;;;;5.18;0.90;;;12.40;99.90;;;;;;6205453;28;20058;-83
2022/09/18 05:14:55;;;;;;;6.25;2.17;;;12.40;99.90;;;;;;6205705;28;20125;-83
2022/09/18 05:18:02;;;;;;;5.35;0.80;;;12.50;99.90;;;;;;6205018;28;20046;-83
2022/09/18 05:21:05;;;;;;;5.57;1.07;;;12.50;99.90;;;;;;6204468;28;20052;-82
2022/09/18 05:24:07;;;;;;;7.55;1.00;;;12.60;99.90;;;;;;6204790;28;20281;-83
2022/09/18 05:27:08;;;;;;;5.38;0.98;;;12.60;99.90;;;;;;6205146;28;20050;-83
2022/09/18 05:30:11;;;;;;;7.05;2.75;;;12.60;99.90;;;;;;6205707;28;20050;-83
2022/09/18 05:33:14;;;;;;;5.85;0.95;;;12.60;99.90;;;;;;6194570;28;20055;-83
2022/09/18 05:36:15;;;;;;;3.83;0.73;;;12.60;99.90;;;;;;6207117;28;20047;-83
2022/09/18 05:39:17;;;;;;;8.65;0.88;;;12.60;99.90;;;;;;6205590;28;20050;-83
2022/09/18 05:42:18;;;;;;;4.20;0.60;;;12.60;99.90;;;;;;6206155;28;20436;-82
2022/09/18 05:45:21;;;;;;;7.68;0.90;;;12.60;99.90;;;;;;6206553;28;20050;-83
2022/09/18 05:48:24;;;;;;;4.95;0.90;;;12.50;99.90;;;;;;6207149;28;20057;-82
2022/09/18 05:51:26;;;;;;;3.28;0.52;;;12.60;99.90;;;;;;6206328;28;20061;-83
2022/09/18 05:54:28;;;;;;;5.82;1.15;;;12.60;99.90;;;;;;6206412;28;20053;-83
2022/09/18 05:57:30;;;;;;;5.07;0.80;;;12.70;99.90;;;;;;6208066;28;20251;-83
2022/09/18 06:00:34;;;;;;;5.00;1.05;;;12.60;99.90;;;;;;6205657;28;20042;-82
2022/09/18 06:03:37;;;;;;;3.05;0.88;;;12.70;99.90;;;;;;6205296;28;20054;-82
2022/09/18 06:06:38;;;;;;;7.57;0.80;;;12.70;99.90;;;;;;6205816;28;20069;-83
2022/09/18 06:09:40;;;;;;;2.17;0.60;;;12.80;99.90;;;;;;6204718;28;20057;-83
2022/09/18 06:12:42;;;;;;;1.33;0.52;;;12.90;99.90;;;;;;6205288;28;20046;-82
2022/09/18 06:15:44;;;;;;;5.15;0.57;;;13.00;99.90;;;;;;6204706;28;20047;-83
2022/09/18 06:18:47;;;;;;;5.60;0.80;;;13.10;99.90;;;;;;6205074;28;20054;-82
2022/09/18 06:21:49;;;;;;;6.28;0.60;;;13.20;99.90;;;;;;6204334;28;20054;-83
2022/09/18 06:24:51;;;;;;;2.20;0.35;;;13.20;99.90;;;;;;6207455;28;20566;-83
2022/09/18 06:27:57;;;;;;;6.20;0.70;;;13.30;99.90;;;;;;6203752;28;20535;-81
2022/09/18 06:31:01;;;;;;;3.08;0.85;;;13.40;99.90;;;;;;6205476;28;20043;-83
2022/09/18 06:34:04;;;;;;;6.32;0.52;;;13.40;99.90;;;;;;6190617;28;20047;-83
2022/09/18 06:37:09;;;;;;;4.65;0.85;;;13.50;99.90;;;;;;6202561;28;20046;-83
2022/09/18 06:40:11;;;;;;;1.33;0.63;;;13.50;99.90;;;;;;6203625;28;20062;-82
2022/09/18 06:43:12;;;;;;;4.07;0.85;;;13.50;99.90;;;;;;6206968;28;20054;-82
2022/09/18 06:46:14;;;;;;;6.32;2.42;;;13.60;99.90;;;;;;6226851;28;20049;-83
2022/09/18 06:49:17;;;;;;;5.60;3.67;;;13.80;99.90;;;;;;6225479;28;20050;-83
2022/09/18 06:52:19;;;;;;;3.10;1.00;;;14.00;99.90;;;;;;6226642;28;20046;-83
2022/09/18 06:55:20;;;;;;;2.70;0.95;;;14.30;99.90;;;;;;6225202;28;20524;-82
2022/09/18 06:58:22;;;;;;;15.07;2.00;;;14.40;99.90;;;;;;6225700;28;20053;-83
2022/09/18 07:01:24;;;;;;;5.15;1.60;;;14.40;99.90;;;;;;6202430;28;20043;-83
2022/09/18 07:04:27;;;;;;;5.45;1.40;;;14.40;99.90;;;;;;6201894;28;20066;-82
2022/09/18 07:07:28;;;;;;;8.73;1.20;;;14.60;99.90;;;;;;6208443;28;20145;-83
2022/09/18 07:10:30;;;;;;;3.60;0.50;;;14.70;99.90;;;;;;6227313;28;20065;-83
2022/09/18 07:13:33;;;;;;;0.90;0.17;;;14.60;99.90;;;;;;6226782;28;20510;-82
2022/09/18 07:16:35;;;;;;;6.40;0.90;;;14.60;99.90;;;;;;6231528;28;20443;-82
2022/09/18 07:19:38;;;;;;;2.55;0.90;;;14.40;99.90;;;;;;6226077;28;20049;-82
2022/09/18 07:22:40;;;;;;;3.70;0.93;;;14.30;99.90;;;;;;6225312;28;20500;-82
2022/09/18 07:25:42;;;;;;;1.27;0.50;;;14.30;99.90;;;;;;6225293;28;20050;-82
2022/09/18 07:28:44;;;;;;;2.10;1.70;;;14.40;99.90;;;;;;6223666;28;20053;-82
2022/09/18 07:31:46;;;;;;;3.85;1.23;;;14.50;99.90;;;;;;6223727;28;20046;-82
2022/09/18 07:34:49;;;;;;;2.67;0.88;;;14.70;99.70;;;;;;6224848;28;20050;-83
2022/09/18 07:37:50;;;;;;;4.63;0.52;;;14.90;99.80;;;;;;6232308;28;20058;-83
2022/09/18 07:40:52;;;;;;;2.78;0.80;;;15.10;98.90;;;;;;6230826;28;20042;-83
2022/09/18 07:43:54;;;;;;;5.25;0.70;;;15.40;98.70;;;;;;6231158;28;20045;-83
2022/09/18 07:46:55;;;;;;;6.32;0.90;;;15.70;97.50;;;;;;6232803;28;20648;-83
2022/09/18 07:49:58;;;;;;;4.00;0.80;;;15.60;97.30;;;;;;6233354;28;20049;-83
2022/09/18 07:53:02;;;;;;;3.72;0.52;;;15.50;97.50;;;;;;6233321;28;20050;-83
2022/09/18 07:56:07;;;;;;;2.33;0.60;;;15.60;97.50;;;;;;6232742;28;20101;-83
2022/09/18 07:59:09;;;;;;;4.60;0.45;;;15.80;97.30;;;;;;6233043;28;20057;-82
2022/09/18 08:02:11;;;;;;;6.85;0.93;;;15.90;96.40;;;;;;6232102;28;20049;-83
2022/09/18 08:05:15;;;;;;;2.55;0.82;;;16.00;96.50;;;;;;6163297;28;20046;-82
2022/09/18 08:08:16;;;;;;;6.40;0.80;;;16.20;96.00;;;;;;6198218;28;20047;-82
2022/09/18 08:11:18;;;;;;;2.17;0.60;;;16.20;96.00;;;;;;6221858;28;20045;-82
2022/09/18 08:14:20;;;;;;;5.75;0.90;;;16.20;95.90;;;;;;6202089;28;20046;-83
2022/09/18 08:17:22;;;;;;;4.10;0.52;;;16.20;95.80;;;;;;6184242;28;20550;-83
2022/09/18 08:20:25;;;;;;;7.65;3.05;;;16.40;95.80;;;;;;6183302;28;20043;-83
2022/09/18 08:23:26;;;;;;;3.42;0.52;;;16.50;95.40;;;;;;6183922;28;20050;-82
2022/09/18 08:26:28;;;;;;;1.63;0.52;;;16.50;94.80;;;;;;6182359;28;20520;-82
2022/09/18 08:29:30;;;;;;;7.88;0.77;;;16.30;94.70;;;;;;6178805;28;20543;-82
2022/09/18 08:32:32;;;;;;;1.10;0.45;;;16.10;95.10;;;;;;6179579;28;20051;-83
2022/09/18 08:35:35;;;;;;;2.92;0.63;;;16.00;95.00;;;;;;6191703;28;20043;-83
2022/09/18 08:38:37;;;;;;;3.38;0.45;;;16.00;95.20;;;;;;6205374;28;20144;-83
2022/09/18 08:41:59;;;;;;;2.28;0.40;;;16.10;95.20;;;;;;6230227;28;20496;-82
2022/09/18 08:45:11;;;;;;;2.80;0.45;;;16.40;94.90;;;;;;6230501;28;20094;-82
2022/09/18 08:48:18;;;;;;;3.60;0.60;;;16.90;94.80;;;;;;6234092;28;20046;-83
2022/09/18 08:51:27;;;;;;;3.83;0.60;;;17.50;93.50;;;;;;6232437;28;20056;-83
2022/09/18 08:54:44;;;;;;;4.70;0.60;;;18.00;91.70;;;;;;6233653;28;20141;-82
2022/09/18 08:57:47;;;;;;;4.45;0.80;;;18.20;91.60;;;;;;6230348;28;20057;-84
2022/09/18 09:00:52;;;;;;;5.90;1.05;;;18.30;90.70;;;;;;6233215;28;20085;-84
2022/09/18 09:04:01;;;;;;;2.28;0.70;;;18.30;90.80;;;;;;6233128;28;20050;-84
2022/09/18 09:07:17;;;;;;;8.48;0.80;;;18.20;90.90;;;;;;6226096;28;20048;-84
2022/09/18 09:10:33;;;;;;;2.03;0.50;;;18.30;90.80;;;;;;6225991;28;20046;-84
2022/09/18 09:13:54;;;;;;;6.07;0.82;;;18.40;90.80;;;;;;6235198;28;20061;-85
2022/09/18 09:17:04;;;;;;;4.00;0.70;;;18.50;90.10;;;;;;6215024;28;20058;-84
2022/09/18 09:20:17;;;;;;;1.55;0.30;;;18.70;88.90;;;;;;6208701;28;20039;-83
2022/09/18 09:23:30;;;;;;;9.50;0.60;;;18.80;88.10;;;;;;6212388;28;20093;-85
2022/09/18 09:26:33;;;;;;;8.27;0.93;;;18.80;87.60;;;;;;6210011;28;20508;-84
2022/09/18 09:29:39;;;;;;;3.80;0.63;;;18.70;86.50;;;;;;6211562;28;20046;-84
2022/09/18 09:32:46;;;;;;;2.53;0.50;;;18.70;87.20;;;;;;6211093;28;20050;-83
2022/09/18 09:35:52;;;;;;;2.15;0.60;;;18.70;86.20;;;;;;6203524;28;20073;-83
2022/09/18 09:39:00;;;;;;;2.88;0.63;;;18.70;87.40;;;;;;6218297;28;20114;-84
2022/09/18 09:42:06;;;;;;;5.45;0.60;;;19.00;86.20;;;;;;6236675;28;20087;-83
2022/09/18 09:45:15;;;;;;;3.55;0.63;;;19.20;83.80;;;;;;6199735;28;20051;-84
2022/09/18 09:48:24;;;;;;;2.58;0.40;;;19.10;83.70;;;;;;6201464;28;20053;-83
2022/09/18 09:51:33;;;;;;;5.68;0.40;;;19.30;83.00;;;;;;6200764;28;20046;-84
2022/09/18 09:54:36;;;;;;;5.18;0.65;;;19.30;84.10;;;;;;6199830;28;20050;-85
2022/09/18 09:57:45;;;;;;;2.78;0.45;;;19.40;82.50;;;;;;6202153;28;20050;-83
2022/09/18 10:00:52;;;;;;;5.57;0.93;;;19.40;81.10;;;;;;6208490;28;20508;-83
2022/09/18 10:04:06;;;;;;;5.82;0.80;;;19.40;81.60;;;;;;6194631;28;20042;-84
2022/09/18 10:07:14;;;;;;;0.57;0.20;;;19.70;81.70;;;;;;6204167;28;20056;-84
2022/09/18 10:10:26;;;;;;;8.23;0.60;;;20.00;80.90;;;;;;6214050;28;20039;-84
2022/09/18 10:13:33;;;;;;;0.60;0.30;;;20.20;77.10;;;;;;6188301;28;20519;-84
2022/09/18 10:16:38;;;;;;;5.82;0.40;;;20.20;76.70;;;;;;6187383;28;20049;-84
2022/09/18 10:19:43;;;;;;;10.15;1.10;;;20.20;76.00;;;;;;6203733;28;20047;-84
2022/09/18 10:22:47;;;;;;;5.38;1.05;;;20.30;74.80;;;;;;6204559;28;20046;-83
2022/09/18 10:25:54;;;;;;;0.70;0.20;;;20.40;74.80;;;;;;6186854;28;20058;-84
2022/09/18 10:28:56;;;;;;;4.07;0.50;;;20.40;73.30;;;;;;6187141;28;20061;-84
2022/09/18 10:31:59;;;;;;;3.55;0.50;;;20.50;73.90;;;;;;6189940;28;20047;-83
2022/09/18 10:35:21;;;;;;;2.22;0.28;;;20.70;72.60;;;;;;6183961;28;20051;-83
2022/09/18 10:38:29;;;;;;;2.33;0.40;;;20.80;72.40;;;;;;6204351;28;20042;-82
2022/09/18 10:41:36;;;;;;;1.50;0.30;;;21.20;71.40;;;;;;6204155;28;20521;-83
2022/09/18 10:44:41;;;;;;;2.58;0.30;;;21.40;68.60;;;;;;6202550;28;20054;-83
2022/09/18 10:47:44;;;;;;;3.20;0.30;;;21.20;65.70;;;;;;6202305;28;20077;-83
2022/09/18 10:50:52;;;;;;;0.80;0.20;;;21.00;66.40;;;;;;6202274;28;20057;-83
2022/09/18 10:54:14;;;;;;;1.00;0.20;;;21.00;65.00;;;;;;6202567;28;20060;-83
2022/09/18 10:57:27;;;;;;;2.95;0.80;;;20.90;65.50;;;;;;6203635;28;20065;-83
2022/09/18 11:00:38;;;;;;;2.15;0.35;;;20.80;66.30;;;;;;6202641;28;20043;-83
2022/09/18 11:03:42;;;;;;;1.52;0.30;;;20.90;65.10;;;;;;6202139;28;20057;-83
2022/09/18 11:06:46;;;;;;;3.05;0.40;;;20.80;64.60;;;;;;6197230;28;20049;-83
2022/09/18 11:09:48;;;;;;;1.35;0.32;;;20.80;65.10;;;;;;6212871;28;20050;-84
2022/09/18 11:12:54;;;;;;;4.47;0.57;;;21.10;63.50;;;;;;6209022;28;20137;-83
2022/09/18 11:15:58;;;;;;;1.65;0.50;;;21.50;63.50;;;;;;6207891;28;20121;-80
2022/09/18 11:19:07;;;;;;;0.57;0.30;;;21.70;62.30;;;;;;6207885;28;20053;-80
2022/09/18 11:22:31;;;;;;;5.25;0.47;;;21.70;61.30;;;;;;6206853;28;20467;-80
2022/09/18 11:25:33;;;;;;;4.93;1.17;;;21.70;61.00;;;;;;6207475;28;20046;-79
2022/09/18 11:28:36;;;;;;;1.55;0.55;;;21.70;61.30;;;;;;6205562;28;20500;-80
2022/09/18 11:31:41;;;;;;;4.15;0.60;;;21.80;60.40;;;;;;6206452;28;20047;-80
2022/09/18 11:34:48;;;;;;;4.88;0.55;;;21.60;59.80;;;;;;6206463;28;20042;-80
2022/09/18 11:37:53;;;;;;;3.45;0.85;;;21.20;60.60;;;;;;6201470;28;20137;-81
2022/09/18 11:40:56;;;;;;;1.08;0.20;;;21.00;61.70;;;;;;6225993;28;20057;-81
2022/09/18 11:44:04;;;;;;;5.85;0.50;;;20.60;62.90;;;;;;6232147;28;20057;-81
2022/09/18 11:47:32;;;;;;;2.33;0.55;;;20.30;62.60;;;;;;6234129;28;20046;-81
2022/09/18 11:50:36;;;;;;;0.30;0.10;;;19.90;63.30;;;;;;6231216;28;20038;-81
2022/09/18 11:53:41;;;;;;;1.92;0.40;;;19.50;63.40;;;;;;6230924;28;20057;-81
2022/09/18 11:56:48;;;;;;;2.95;0.30;;;19.00;64.20;;;;;;6232141;28;20045;-80
2022/09/18 11:59:57;;;;;;;2.05;0.22;;;18.80;64.90;;;;;;6230632;28;20052;-81
2022/09/18 12:03:07;;;;;;;1.15;0.20;;;18.90;66.50;;;;;;6230345;28;20046;-81
2022/09/18 12:06:17;;;;;;;2.92;0.52;;;19.00;65.50;;;;;;6228138;28;20049;-81
2022/09/18 12:09:25;;;;;;;0.52;0.20;;;19.30;65.60;;;;;;6219108;28;20054;-81
2022/09/18 12:12:32;;;;;;;3.10;0.40;;;19.60;64.90;;;;;;6229035;28;20041;-83
2022/09/18 12:15:39;;;;;;;0.43;0.30;;;19.70;64.80;;;;;;6182698;28;20055;-82
2022/09/18 12:18:49;;;;;;;23.65;10.93;;;19.60;63.60;;;;;;6200433;28;20045;-82
2022/09/18 12:21:57;;;;;;;2.53;0.52;;;19.40;64.10;;;;;;6208370;28;20046;-81
2022/09/18 12:24:59;;;;;;;2.10;0.20;;;19.30;64.40;;;;;;6208742;28;20058;-82
2022/09/18 12:28:13;;;;;;;3.67;0.47;;;19.20;64.70;;;;;;6205658;28;20053;-82
2022/09/18 12:31:26;;;;;;;1.55;0.47;;;19.20;65.10;;;;;;6206074;28;20042;-81
2022/09/18 12:34:32;;;;;;;3.10;0.63;;;19.40;66.00;;;;;;6207123;28;20053;-82
2022/09/18 12:37:46;;;;;;;2.63;0.22;;;19.50;64.90;;;;;;6208674;28;20045;-82
2022/09/18 12:41:03;;;;;;;1.48;0.90;;;19.50;64.50;;;;;;6216161;28;20049;-81
2022/09/18 12:44:28;;;;;;;1.80;0.40;;;19.50;64.50;;;;;;6231891;28;20053;-81
2022/09/18 12:47:52;;;;;;;1.92;0.73;;;19.40;64.50;;;;;;6231531;28;20100;-82
2022/09/18 12:51:07;;;;;;;2.33;0.55;;;19.20;65.00;;;;;;6228942;28;20053;-81
2022/09/18 12:54:45;;;;;;;1.45;0.68;;;19.10;65.50;;;;;;6229508;28;20053;-82
2022/09/18 12:58:00;;;;;;;2.88;0.60;;;19.10;66.80;;;;;;6230144;28;20057;-82
2022/09/18 13:01:09;;;;;;;1.67;0.30;;;19.00;65.60;;;;;;6230431;28;20057;-81
2022/09/18 13:04:20;;;;;;;1.88;0.45;;;19.10;65.90;;;;;;6213825;28;20061;-82
2022/09/18 13:07:27;;;;;;;2.20;0.60;;;19.20;65.30;;;;;;6223590;28;20053;-81
2022/09/18 13:10:34;;;;;;;0.93;0.40;;;19.10;64.60;;;;;;6222717;28;20050;-81
2022/09/18 13:13:40;;;;;;;1.70;0.28;;;19.00;65.20;;;;;;6230142;28;20050;-81
2022/09/18 13:16:46;;;;;;;2.78;0.73;;;18.90;65.20;;;;;;6229504;28;20057;-81
2022/09/18 13:19:53;;;;;;;3.83;1.00;;;18.90;65.70;;;;;;6228566;28;20050;-81
2022/09/18 13:22:56;;;;;;;1.48;0.57;;;19.10;65.40;;;;;;6229244;28;20227;-81
2022/09/18 13:25:59;;;;;;;2.58;0.63;;;19.10;65.20;;;;;;6229519;28;20054;-81
2022/09/18 13:29:02;;;;;;;2.95;0.57;;;19.10;64.80;;;;;;6230006;28;20049;-82
2022/09/18 13:32:03;;;;;;;1.33;0.40;;;19.00;64.50;;;;;;6230609;28;20052;-81
2022/09/18 13:35:20;;;;;;;1.90;0.40;;;18.90;63.90;;;;;;6230891;28;20056;-82
2022/09/18 13:38:25;;;;;;;1.75;0.30;;;18.80;63.50;;;;;;6215529;28;20432;-83
2022/09/18 13:41:27;;;;;;;2.15;0.50;;;18.80;64.00;;;;;;6189649;28;20065;-82
2022/09/18 13:44:31;;;;;;;2.08;0.57;;;18.80;64.20;;;;;;6206555;28;20049;-82
2022/09/18 13:48:01;;;;;;;254.25;75.15;;;18.80;65.10;;;;;;6207202;28;20042;-82
2022/09/18 13:51:07;;;;;;;220.68;72.70;;;19.00;65.60;;;;;;6205095;28;20061;-83
2022/09/18 13:54:21;;;;;;;44.13;19.63;;;19.00;65.40;;;;;;6206894;28;20050;-82
2022/09/18 13:57:30;;;;;;;69.38;29.98;;;18.90;65.00;;;;;;6210967;28;20057;-82
2022/09/18 14:00:41;;;;;;;16.48;6.10;;;19.00;65.30;;;;;;6207620;28;20052;-82
2022/09/18 14:03:43;;;;;;;6.32;1.85;;;18.90;65.50;;;;;;6203338;28;20046;-81
2022/09/18 14:06:46;;;;;;;5.30;1.40;;;18.80;64.90;;;;;;6182549;28;20081;-81
2022/09/18 14:09:52;;;;;;;2.15;1.05;;;18.70;65.00;;;;;;6213661;28;20050;-83
2022/09/18 14:13:28;;;;;;;3.88;0.80;;;18.50;65.00;;;;;;6202381;28;20054;-82
2022/09/18 14:16:37;;;;;;;2.20;0.65;;;18.50;65.80;;;;;;6170928;28;20053;-82
2022/09/18 14:19:40;;;;;;;3.60;0.57;;;18.30;66.10;;;;;;6202258;28;20128;-83
2022/09/18 14:22:43;;;;;;;6.78;0.88;;;18.20;66.30;;;;;;6202381;28;20053;-82
2022/09/18 14:25:48;;;;;;;1.00;0.30;;;18.10;67.70;;;;;;6178674;28;20049;-83
2022/09/18 14:28:51;;;;;;;4.20;0.40;;;18.20;67.90;;;;;;6177055;28;20090;-82
2022/09/18 14:31:55;;;;;;;2.63;0.35;;;18.20;67.80;;;;;;6201390;28;20047;-82
2022/09/18 14:35:25;;;;;;;2.92;0.40;;;18.30;67.80;;;;;;6202980;28;20054;-83
2022/09/18 14:38:33;;;;;;;0.98;0.55;;;18.30;67.10;;;;;;6205600;28;20046;-83
2022/09/18 14:41:35;;;;;;;;;;;18.30;65.90;;;;;;6212837;28;20046;-83
2022/09/18 14:44:38;;;;;;;3.00;0.55;;;18.10;65.70;;;;;;6210561;28;19985;-83
2022/09/18 14:47:41;;;;;;;3.25;0.55;;;18.00;65.80;;;;;;6205591;28;20046;-82
2022/09/18 14:50:43;;;;;;;2.45;0.60;;;17.90;65.70;;;;;;6204667;28;20050;-82
2022/09/18 14:53:48;;;;;;;3.25;0.32;;;17.70;66.50;;;;;;6206777;28;20050;-83
2022/09/18 14:56:52;;;;;;;4.85;0.77;;;17.60;66.30;;;;;;6202323;28;20050;-82
2022/09/18 14:59:57;;;;;;;2.97;0.75;;;17.60;67.20;;;;;;6201938;28;20053;-81
2022/09/18 15:03:01;;;;;;;1.48;0.40;;;17.50;67.60;;;;;;6203643;28;20047;-82
2022/09/18 15:06:09;;;;;;;5.28;0.55;;;17.50;67.70;;;;;;6196660;28;20046;-82
2022/09/18 15:09:17;;;;;;;5.00;0.20;;;17.50;68.00;;;;;;6222398;28;20042;-82
2022/09/18 15:12:24;;;;;;;2.60;0.60;;;17.50;67.20;;;;;;6225954;28;20498;-83
2022/09/18 15:15:29;;;;;;;1.40;0.30;;;17.50;67.80;;;;;;6224588;28;20049;-83
2022/09/18 15:18:39;;;;;;;0.47;0.20;;;17.40;67.70;;;;;;6225634;28;20045;-82
2022/09/18 15:21:46;;;;;;;1.52;0.63;;;17.40;67.10;;;;;;6230921;28;20053;-83
2022/09/18 15:24:49;;;;;;;2.33;0.63;;;17.30;67.90;;;;;;6232538;28;20046;-83
2022/09/18 15:27:54;;;;;;;2.17;0.40;;;17.30;68.00;;;;;;6232449;28;20518;-83
2022/09/18 15:31:02;;;;;;;3.65;0.52;;;17.30;68.40;;;;;;6226246;28;20050;-84
2022/09/18 15:34:06;;;;;;;;;;;17.40;67.50;;;;;;6226415;28;20553;-82
2022/09/18 15:37:13;;;;;;;3.95;0.32;;;17.30;67.40;;;;;;6214688;28;19925;-82
2022/09/18 15:40:20;;;;;;;1.00;0.35;;;17.30;67.50;;;;;;6209150;28;20057;-83
2022/09/18 15:43:42;;;;;;;2.23;0.60;;;17.30;67.80;;;;;;6201402;28;20050;-83
2022/09/18 15:46:43;;;;;;;1.10;0.40;;;17.40;67.90;;;;;;6200447;28;20054;-82
2022/09/18 15:49:45;;;;;;;7.75;2.47;;;17.40;67.50;;;;;;6200624;28;20046;-83
2022/09/18 15:53:04;;;;;;;13.48;5.40;;;17.40;66.90;;;;;;6199359;28;20050;-83
2022/09/18 15:56:17;;;;;;;0.95;0.50;;;17.40;67.50;;;;;;6203645;28;20133;-83
2022/09/18 15:59:29;;;;;;;1.85;1.00;;;17.40;67.10;;;;;;6190997;28;20058;-84
2022/09/18 16:06:59;;;;;;;5.25;1.10;;;17.40;66.90;;;;;;6180293;28;20089;-84
2022/09/18 16:10:58;;;;;;;7.45;1.40;;;17.40;67.40;;;;;;6210171;28;20084;-84
2022/09/18 16:15:01;;;;;;;3.55;0.75;;;17.40;67.30;;;;;;6229104;28;20488;-84